LIPELIMJ

Guest
Details From LIPE - BOLOGNA
To LIMJ - Genova Sestri
Flight Number -
Tags generated
Created
Modified
Stats Distance 105 nm / 195 km
Max Altitude 10,800 ft / 3,292 m
Waypoints 6
Social Downloads 10
Likes 0
Share VATSIM

Download

Looking for another format? Having issues loading an existing format? Contact us
Advertisement - Login to hide

Notes

Basic altitude profile: - Ascent Rate: 2500ft/min - Ascent Speed: 250kts - Cruise Altitude: 35000ft - Cruise Speed: 420kts - Descent Rate: 1500ft/min - Descent Speed: 250kts Options: - Use NATs: yes - Use PACOTS: yes - Use low airways: yes - Use high airways: yes

Route

LIPE LUPOS M859 GEN LIMJ

ID Type Via Altitude Latitude Longitude Leg Dist Tot Dist Heading (true) Name
O LIPE APT - 0 ft / 0 m 44.53545˚ 11.28866˚ - 0 nm - BOLOGNA
LUPOS FIX - 10,800 ft / 3,292 m 44.50472˚ 10.58139˚ 30 nm 30 nm 267° / 266° -
KALIK FIX M859 (AWY-LO) 10,500 ft / 3,200 m 44.46833˚ 9.84806˚ 31 nm 61 nm 266° / 266° -
GOLAS FIX M859 (AWY-LO) 10,500 ft / 3,200 m 44.45500˚ 9.61750˚ 9 nm 71 nm 265° / 265° -
GEN VOR M859 (AWY-LO) 10,500 ft / 3,200 m 44.42444˚ 9.08233˚ 23 nm 94 nm 266° / 265° GENOVA VOR-DME
O LIMJ APT - 0 ft / 0 m 44.41196˚ 8.84187˚ 10 nm 105 nm 266° / 266° Genova Sestri

Altitude Profile

Advertisement - Login to hide

LIPE

Details ICAO LIPE (BLQ)
Name BOLOGNA
Region Italy
Timezone Europe/Rome (UTC+1.0)
Stats Elevation 123 ft / 37 m (AMSL)
Location 44.535446° 11.288662°
Runways 1
Magnetic Variation 2.917° E

METAR

LIPE 111150Z VRB02KT 2700 -DZ BR BKN003 BKN006 02/01 Q0998

Decode

TAF

TAF LIPE 111100Z 1112/1212 19010KT 8000 BKN015 TEMPO 1112/1118 2000 RA BKN006

Decode

Departure Runways

ID Width Length Bearing (true) Bearing (mag) Surface Threshold Offset Overrun Length
12 148 ft / 45 m 9,185 ft / 2,800 m 116.78° 113.86° Asphalt 1,007 ft / 307 m 0 ft / 0 m
30 148 ft / 45 m 9,185 ft / 2,800 m 296.81° 293.89° Asphalt 1,188 ft / 362 m 200 ft / 61 m

LIMJ

Details ICAO LIMJ (GOA)
Name Genova Sestri
Region Italy
Timezone Unknown (UTC+0.0)
Stats Elevation 13 ft / 4 m (AMSL)
Location 44.411957° 8.841866°
Runways 1
Magnetic Variation 2.387° E

METAR

LIMJ 111150Z 21012KT 150V240 2800 R28/1200V1500N RA BR FEW010 BKN022 BKN050 14/14 Q0995

Decode

TAF

TAF LIMJ 111100Z 1112/1212 21015G30KT 6000 RA BKN020 BKN050 TEMPO 1115/1121 20030G50KT BECMG 1122/1124 NSW

Decode

Destination Runways

ID Width Length Bearing (true) Bearing (mag) Surface Threshold Offset Overrun Length
10 148 ft / 45 m 9,574 ft / 2,918 m 105.39° 103.00° Asphalt 0 ft / 0 m 0 ft / 0 m
28 148 ft / 45 m 9,574 ft / 2,918 m 285.41° 283.02° Asphalt 538 ft / 164 m 0 ft / 0 m

Approach Navaids

Runway Type Ident Frequency Range Bearing (true) Bearing (mag) Slope Elevation
28 Localiser GSE 109.30 MHz 18 nm / 33 km 287.30° 284.92° - 9 ft / 3 m (AMSL)
28 Glidescope GSE 109.30 MHz 10 nm / 19 km 287.30° 284.92° 3.17° 26 ft / 8 m (AMSL)
28 DME GSE 109.30 MHz 18 nm / 33 km - - - 26 ft / 8 m (AMSL)

Popular Alternatives